Time;durP1;ratioP1;P1;durP2;ratioP2;P2;SDS_P1;SDS_P2;PMS_P1;PMS_P2;Temp;Humidity;BMP_temperature;BMP_pressure;BME280_temperature;BME280_humidity;BME280_pressure;Samples;Min_cycle;Max_cycle;Signal;HPM_P1;HPM_P2
2023/12/16 00:00:59;;;;;;;10.23;5.55;;;10.90;99.90;;;;;;5028461;28;20557;-74
2023/12/16 00:03:28;;;;;;;11.18;5.55;;;10.90;99.90;;;;;;4990766;28;20910;-74
2023/12/16 00:05:54;;;;;;;10.70;5.82;;;10.90;99.90;;;;;;5016021;28;20177;-74
2023/12/16 00:08:21;;;;;;;9.87;5.00;;;10.90;99.90;;;;;;5022456;28;20190;-75
2023/12/16 00:10:47;;;;;;;10.88;5.40;;;10.90;99.90;;;;;;5021348;28;20621;-74
2023/12/16 00:13:13;;;;;;;11.37;5.00;;;10.90;99.90;;;;;;5026981;28;20240;-74
2023/12/16 00:15:39;;;;;;;7.88;5.38;;;11.00;99.90;;;;;;5019065;28;20186;-74
2023/12/16 00:18:05;;;;;;;9.40;4.13;;;10.90;99.90;;;;;;5024340;28;20178;-74
2023/12/16 00:20:30;;;;;;;8.97;4.10;;;11.00;99.90;;;;;;5018883;28;20675;-74
2023/12/16 00:22:56;;;;;;;9.93;3.70;;;10.90;99.90;;;;;;5025359;28;20567;-74
2023/12/16 00:25:22;;;;;;;7.90;3.93;;;10.90;99.90;;;;;;5014449;28;20190;-74
2023/12/16 00:27:48;;;;;;;10.27;4.60;;;10.90;99.90;;;;;;5005396;28;20202;-74
2023/12/16 00:30:14;;;;;;;9.07;4.40;;;10.90;99.90;;;;;;5006196;28;20716;-74
2023/12/16 00:32:39;;;;;;;10.37;4.83;;;10.90;99.90;;;;;;5014339;28;20202;-74
2023/12/16 00:35:08;;;;;;;7.50;4.30;;;10.90;99.90;;;;;;5024624;28;20227;-74
2023/12/16 00:37:34;;;;;;;7.35;4.28;;;10.90;99.90;;;;;;5030313;28;20177;-74
2023/12/16 00:40:01;;;;;;;5.40;3.38;;;10.90;99.90;;;;;;5024274;28;20185;-74
2023/12/16 00:42:27;;;;;;;13.38;5.30;;;10.90;99.90;;;;;;5015402;28;20214;-74
2023/12/16 00:44:55;;;;;;;11.50;5.63;;;10.90;99.90;;;;;;5014110;28;20203;-74
2023/12/16 00:47:21;;;;;;;14.90;5.80;;;10.90;99.90;;;;;;5000633;28;20182;-74
2023/12/16 00:49:47;;;;;;;8.47;4.33;;;10.90;99.90;;;;;;5016650;28;20228;-74
2023/12/16 00:52:12;;;;;;;7.90;3.87;;;10.90;99.90;;;;;;5011733;28;20198;-74
2023/12/16 00:54:38;;;;;;;13.43;4.10;;;10.90;99.90;;;;;;5020905;28;20634;-74
2023/12/16 00:57:04;;;;;;;8.40;3.60;;;10.90;99.90;;;;;;5020862;28;20177;-74
2023/12/16 00:59:29;;;;;;;7.47;3.57;;;10.90;99.90;;;;;;5020362;28;20664;-74
2023/12/16 01:01:55;;;;;;;8.90;3.90;;;10.90;99.90;;;;;;5012616;28;20191;-74
2023/12/16 01:04:21;;;;;;;8.50;3.97;;;10.90;99.90;;;;;;5021802;28;20202;-74
2023/12/16 01:06:46;;;;;;;6.97;3.70;;;10.90;99.90;;;;;;5029234;28;20638;-74
2023/12/16 01:09:12;;;;;;;8.60;4.77;;;10.80;99.90;;;;;;5020948;28;20182;-74
2023/12/16 01:11:41;;;;;;;8.17;3.70;;;10.80;99.90;;;;;;5021274;28;20205;-74
2023/12/16 01:14:07;;;;;;;12.18;3.85;;;10.80;99.90;;;;;;5021073;28;20233;-74
2023/12/16 01:16:33;;;;;;;6.40;3.35;;;10.80;99.90;;;;;;5019945;28;20185;-74
2023/12/16 01:18:59;;;;;;;6.47;3.60;;;10.80;99.90;;;;;;5017469;28;20698;-74
2023/12/16 01:21:24;;;;;;;10.07;4.57;;;10.80;99.90;;;;;;5029098;28;20582;-74
2023/12/16 01:23:50;;;;;;;10.43;3.30;;;10.80;99.90;;;;;;5012257;28;20209;-74
2023/12/16 01:26:16;;;;;;;7.67;4.37;;;10.80;99.90;;;;;;5026005;28;20189;-74
2023/12/16 01:28:41;;;;;;;11.00;4.00;;;10.80;99.90;;;;;;5017164;28;20220;-75
2023/12/16 01:31:08;;;;;;;8.90;3.83;;;10.80;99.90;;;;;;5018985;28;20175;-74
2023/12/16 01:33:33;;;;;;;6.25;3.50;;;10.80;99.90;;;;;;5015238;28;20186;-75
2023/12/16 01:35:59;;;;;;;8.77;3.10;;;10.80;99.90;;;;;;5025181;28;20169;-74
2023/12/16 01:38:25;;;;;;;11.40;3.40;;;10.80;99.90;;;;;;5004580;28;20726;-74
2023/12/16 01:40:51;;;;;;;5.90;3.83;;;10.70;99.90;;;;;;4996008;28;20584;-74
2023/12/16 01:43:16;;;;;;;6.53;3.40;;;10.70;99.90;;;;;;5026109;28;20198;-74
2023/12/16 01:45:42;;;;;;;12.13;4.10;;;10.70;99.90;;;;;;5016829;28;20188;-75
2023/12/16 01:48:11;;;;;;;14.00;3.40;;;10.70;99.90;;;;;;5025983;28;20215;-74
2023/12/16 01:50:37;;;;;;;7.88;3.70;;;10.70;99.90;;;;;;5027443;28;20226;-74
2023/12/16 01:53:04;;;;;;;6.30;3.57;;;10.70;99.90;;;;;;5022475;28;20206;-74
2023/12/16 01:55:31;;;;;;;10.02;4.20;;;10.70;99.90;;;;;;5021086;28;20613;-74
2023/12/16 01:57:57;;;;;;;10.70;3.15;;;10.70;99.90;;;;;;5019400;28;20224;-74
2023/12/16 02:00:29;;;;;;;7.53;2.70;;;10.70;99.90;;;;;;5020508;28;20169;-74
2023/12/16 02:02:55;;;;;;;8.90;3.50;;;10.70;99.90;;;;;;5020720;28;20610;-74
2023/12/16 02:05:21;;;;;;;4.25;3.28;;;10.70;99.90;;;;;;5017742;28;20185;-74
2023/12/16 02:07:46;;;;;;;9.60;4.33;;;10.70;99.90;;;;;;5020511;28;20169;-74
2023/12/16 02:10:13;;;;;;;8.83;3.57;;;10.70;99.90;;;;;;5010948;28;20225;-74
2023/12/16 02:12:39;;;;;;;5.50;3.00;;;10.70;99.90;;;;;;5021844;28;20605;-74
2023/12/16 02:15:05;;;;;;;6.80;3.10;;;10.70;99.90;;;;;;5032819;28;20193;-75
2023/12/16 02:17:31;;;;;;;8.77;3.53;;;10.70;99.90;;;;;;5033835;28;20170;-74
2023/12/16 02:19:56;;;;;;;8.70;3.50;;;10.70;99.90;;;;;;5034942;28;20284;-74
2023/12/16 02:22:22;;;;;;;7.13;2.90;;;10.70;99.90;;;;;;5033199;28;20202;-74
2023/12/16 02:24:49;;;;;;;10.40;4.20;;;10.70;99.90;;;;;;5030767;28;20195;-74
2023/12/16 02:27:15;;;;;;;10.57;3.83;;;10.70;99.90;;;;;;5030439;28;20585;-74
2023/12/16 02:29:41;;;;;;;6.27;3.50;;;10.60;99.90;;;;;;5032911;28;20209;-73
2023/12/16 02:32:07;;;;;;;8.23;3.60;;;10.70;99.90;;;;;;5028339;28;20635;-74
2023/12/16 02:34:33;;;;;;;9.40;3.80;;;10.60;99.90;;;;;;5110720;27;20174;-74
2023/12/16 02:37:02;;;;;;;5.43;2.90;;;10.60;99.90;;;;;;5023690;28;20593;-73
2023/12/16 02:39:28;;;;;;;12.05;4.05;;;10.60;99.90;;;;;;5044588;28;20185;-74
2023/12/16 02:41:55;;;;;;;5.93;2.95;;;10.60;99.90;;;;;;5016213;28;20893;-74
2023/12/16 02:44:20;;;;;;;9.50;4.20;;;10.60;99.90;;;;;;5015933;28;20214;-74
2023/12/16 02:46:46;;;;;;;11.50;4.73;;;10.60;99.90;;;;;;5016072;28;20178;-74
2023/12/16 02:49:12;;;;;;;6.40;3.23;;;10.60;99.90;;;;;;5017528;28;20178;-73
2023/12/16 02:51:37;;;;;;;8.53;3.13;;;10.60;99.90;;;;;;5027067;28;20539;-73
2023/12/16 02:54:03;;;;;;;8.80;4.20;;;10.50;99.90;;;;;;5019261;28;20224;-74
2023/12/16 02:56:29;;;;;;;8.03;3.23;;;10.50;99.90;;;;;;5027382;28;20268;-74
2023/12/16 02:58:54;;;;;;;6.20;3.10;;;10.50;99.90;;;;;;5019445;28;20186;-74
2023/12/16 03:01:20;;;;;;;6.30;2.63;;;10.60;99.90;;;;;;5023902;28;20204;-74
2023/12/16 03:03:46;;;;;;;9.87;2.70;;;10.60;99.90;;;;;;5021644;28;20232;-74
2023/12/16 03:06:11;;;;;;;5.77;2.57;;;10.60;99.90;;;;;;5019679;28;20181;-74
2023/12/16 03:08:37;;;;;;;9.40;3.10;;;10.50;99.90;;;;;;5017035;28;20174;-74
2023/12/16 03:11:04;;;;;;;6.63;2.92;;;10.50;99.90;;;;;;5022241;28;20662;-75
2023/12/16 03:13:30;;;;;;;7.47;2.35;;;10.50;99.90;;;;;;5024665;28;20717;-74
2023/12/16 03:15:56;;;;;;;7.57;2.33;;;10.60;99.90;;;;;;5007081;28;20193;-74
2023/12/16 03:18:21;;;;;;;6.60;3.57;;;10.60;99.90;;;;;;5027758;28;20644;-74
2023/12/16 03:20:48;;;;;;;6.87;3.57;;;10.60;99.90;;;;;;5027598;28;20581;-75
2023/12/16 03:23:15;;;;;;;7.15;2.20;;;10.60;99.90;;;;;;5026674;28;20249;-75
2023/12/16 03:25:43;;;;;;;3.85;2.00;;;10.60;99.90;;;;;;5028142;28;20181;-74
2023/12/16 03:28:09;;;;;;;6.22;2.45;;;10.60;99.90;;;;;;5026867;28;20177;-74
2023/12/16 03:30:39;;;;;;;10.05;3.63;;;10.60;99.90;;;;;;5009671;28;20185;-75
2023/12/16 03:33:05;;;;;;;5.38;2.70;;;10.60;99.90;;;;;;5026681;28;20201;-75
2023/12/16 03:35:30;;;;;;;8.23;2.83;;;10.60;99.90;;;;;;5026810;28;20257;-75
2023/12/16 03:37:56;;;;;;;6.13;2.23;;;10.60;99.90;;;;;;5003188;23;20276;-75
2023/12/16 03:40:22;;;;;;;5.87;2.40;;;10.60;99.90;;;;;;4992342;28;20199;-75
2023/12/16 03:42:47;;;;;;;7.20;2.80;;;10.60;99.90;;;;;;4911381;28;20896;-75
2023/12/16 03:45:13;;;;;;;6.60;2.47;;;10.60;99.90;;;;;;5004791;28;20187;-75
2023/12/16 03:47:39;;;;;;;5.67;3.07;;;10.60;99.90;;;;;;4996174;28;20314;-74
2023/12/16 03:50:05;;;;;;;5.53;2.13;;;10.60;99.90;;;;;;4971231;28;20281;-75
2023/12/16 03:52:30;;;;;;;6.38;2.97;;;10.60;99.90;;;;;;5027436;28;20191;-75
2023/12/16 03:54:56;;;;;;;6.03;3.30;;;10.60;99.90;;;;;;4988088;28;20264;-75
2023/12/16 03:57:22;;;;;;;8.83;2.60;;;10.60;99.90;;;;;;4995917;28;20201;-75
2023/12/16 03:59:47;;;;;;;4.77;2.37;;;10.60;99.90;;;;;;4968077;28;20184;-75
2023/12/16 04:02:13;;;;;;;9.20;2.73;;;10.60;99.90;;;;;;4930284;28;20284;-75
2023/12/16 04:04:41;;;;;;;6.70;2.47;;;10.60;99.90;;;;;;4995866;28;20220;-75
2023/12/16 04:07:06;;;;;;;8.15;2.67;;;10.60;99.90;;;;;;5030181;28;20269;-75
2023/12/16 04:09:32;;;;;;;3.50;2.07;;;10.60;99.90;;;;;;4995399;28;20269;-75
2023/12/16 04:11:58;;;;;;;4.63;2.40;;;10.60;99.90;;;;;;5012801;28;20180;-75
2023/12/16 04:14:23;;;;;;;9.00;2.13;;;10.60;99.90;;;;;;4931560;28;20620;-76
2023/12/16 04:16:49;;;;;;;7.87;2.40;;;10.60;99.90;;;;;;5013362;28;20185;-75
2023/12/16 04:19:18;;;;;;;11.23;2.58;;;10.60;99.90;;;;;;4936545;28;20189;-75
2023/12/16 04:21:43;;;;;;;5.90;2.17;;;10.60;99.90;;;;;;4998255;28;20535;-75
2023/12/16 04:24:09;;;;;;;8.53;3.20;;;10.60;99.90;;;;;;4933611;28;20223;-76
2023/12/16 04:26:35;;;;;;;4.80;2.30;;;10.60;99.90;;;;;;4999103;28;20173;-75
2023/12/16 04:29:01;;;;;;;5.73;2.20;;;10.60;99.90;;;;;;4933498;28;20627;-75
2023/12/16 04:31:26;;;;;;;11.27;2.77;;;10.50;99.90;;;;;;4998778;28;20593;-75
2023/12/16 04:33:54;;;;;;;5.40;2.03;;;10.60;99.90;;;;;;5032908;28;20589;-75
2023/12/16 04:36:20;;;;;;;5.10;2.45;;;10.60;99.90;;;;;;4999284;28;20334;-75
2023/12/16 04:38:46;;;;;;;6.33;2.50;;;10.50;99.90;;;;;;5016130;28;20635;-76
2023/12/16 04:41:14;;;;;;;8.07;2.77;;;10.50;99.90;;;;;;4931466;29;20695;-75
2023/12/16 04:43:40;;;;;;;6.30;2.58;;;10.50;99.90;;;;;;5003144;28;20216;-75
2023/12/16 04:46:06;;;;;;;5.70;2.20;;;10.50;99.90;;;;;;5032609;28;20196;-76
2023/12/16 04:48:32;;;;;;;5.55;2.13;;;10.50;99.90;;;;;;4933121;28;20212;-76
2023/12/16 04:51:05;;;;;;;5.50;3.15;;;10.50;99.90;;;;;;4998836;28;20176;-75
2023/12/16 04:53:32;;;;;;;4.90;1.80;;;10.50;99.90;;;;;;5024286;28;20272;-75
2023/12/16 04:55:59;;;;;;;6.50;2.20;;;10.50;99.90;;;;;;4999093;28;20193;-75
2023/12/16 04:58:25;;;;;;;4.90;2.75;;;10.50;99.90;;;;;;4998867;28;20201;-76
2023/12/16 05:00:51;;;;;;;4.70;2.25;;;10.50;99.90;;;;;;5031703;28;20859;-76
2023/12/16 05:03:17;;;;;;;5.67;1.77;;;10.50;99.90;;;;;;5007624;28;20271;-76
2023/12/16 05:05:42;;;;;;;4.43;1.60;;;10.50;99.90;;;;;;5011391;28;20261;-76
2023/12/16 05:08:09;;;;;;;4.27;1.80;;;10.50;99.90;;;;;;4975884;28;20209;-76
2023/12/16 05:10:34;;;;;;;9.75;2.03;;;10.50;99.90;;;;;;4978616;28;20177;-74
2023/12/16 05:13:00;;;;;;;4.53;1.53;;;10.50;99.90;;;;;;4928395;28;20177;-75
2023/12/16 05:15:26;;;;;;;4.97;1.73;;;10.50;99.90;;;;;;4932772;28;20181;-75
2023/12/16 05:17:52;;;;;;;5.13;1.73;;;10.50;99.90;;;;;;4971632;28;20289;-75
2023/12/16 05:20:18;;;;;;;7.50;1.60;;;10.50;99.90;;;;;;4982765;28;20190;-75
2023/12/16 05:22:43;;;;;;;6.90;1.57;;;10.50;99.90;;;;;;4976630;28;20181;-76
2023/12/16 05:25:09;;;;;;;3.67;1.70;;;10.50;99.90;;;;;;4972746;28;20219;-76
2023/12/16 05:27:35;;;;;;;7.10;1.67;;;10.50;99.90;;;;;;4998319;28;20601;-76
2023/12/16 05:30:02;;;;;;;7.17;2.00;;;10.50;99.90;;;;;;5031154;28;20178;-75
2023/12/16 05:32:28;;;;;;;5.20;1.80;;;10.50;99.90;;;;;;4980547;28;20232;-75
2023/12/16 05:34:54;;;;;;;6.03;2.20;;;10.50;99.90;;;;;;5031426;28;20783;-76
2023/12/16 05:37:20;;;;;;;9.55;1.95;;;10.50;99.90;;;;;;4997932;28;20754;-76
2023/12/16 05:39:47;;;;;;;7.43;1.80;;;10.50;99.90;;;;;;4931812;28;20263;-76
2023/12/16 05:42:15;;;;;;;5.20;2.05;;;10.50;99.90;;;;;;5031348;28;20593;-76
2023/12/16 05:44:41;;;;;;;4.88;1.35;;;10.50;99.90;;;;;;4994476;28;20229;-75
2023/12/16 05:47:08;;;;;;;7.17;1.77;;;10.50;99.90;;;;;;5010774;28;20205;-76
2023/12/16 05:49:36;;;;;;;7.50;1.77;;;10.50;99.90;;;;;;4938668;28;20177;-75
2023/12/16 05:52:02;;;;;;;4.55;1.50;;;10.50;99.90;;;;;;5029600;28;20559;-75
2023/12/16 05:54:27;;;;;;;2.80;1.37;;;10.50;99.90;;;;;;5013218;28;20184;-75
2023/12/16 05:57:03;;;;;;;4.60;1.53;;;10.50;99.90;;;;;;4932657;28;21106;-75
2023/12/16 05:59:28;;;;;;;8.13;2.28;;;10.50;99.90;;;;;;4987623;28;20220;-75
2023/12/16 06:01:55;;;;;;;6.37;2.30;;;10.60;99.90;;;;;;4932433;28;20189;-75
2023/12/16 06:04:21;;;;;;;6.97;1.63;;;10.50;99.90;;;;;;5005508;28;20811;-75
2023/12/16 06:06:47;;;;;;;3.95;1.33;;;10.50;99.90;;;;;;4997498;28;20185;-75
2023/12/16 06:09:13;;;;;;;8.07;1.50;;;10.60;99.90;;;;;;4990151;28;20189;-75
2023/12/16 06:11:38;;;;;;;8.52;3.15;;;10.50;99.90;;;;;;5002512;28;20213;-75
2023/12/16 06:14:04;;;;;;;3.20;1.57;;;10.50;99.90;;;;;;4994219;28;20773;-75
2023/12/16 06:16:30;;;;;;;4.80;1.60;;;10.60;99.90;;;;;;4931792;28;20258;-76
2023/12/16 06:18:56;;;;;;;4.53;1.87;;;10.60;99.90;;;;;;4989434;28;20628;-74
2023/12/16 06:21:21;;;;;;;3.30;1.50;;;10.60;99.90;;;;;;4931041;28;20185;-75
2023/12/16 06:23:47;;;;;;;6.83;1.97;;;10.60;99.90;;;;;;4984726;28;20202;-76
2023/12/16 06:26:13;;;;;;;4.40;1.60;;;10.60;99.90;;;;;;4997900;28;20173;-76
2023/12/16 06:28:38;;;;;;;4.80;1.83;;;10.60;99.90;;;;;;4964361;28;20188;-75
2023/12/16 06:31:05;;;;;;;5.05;1.90;;;10.60;99.90;;;;;;4914727;28;20184;-75
2023/12/16 06:33:31;;;;;;;4.40;1.63;;;10.60;99.90;;;;;;4946800;28;20651;-75
2023/12/16 06:35:56;;;;;;;6.33;1.63;;;10.60;99.90;;;;;;4934191;28;20227;-75
2023/12/16 06:38:22;;;;;;;3.80;1.63;;;10.60;99.90;;;;;;4997167;28;20659;-76
2023/12/16 06:40:48;;;;;;;5.00;1.70;;;10.60;99.90;;;;;;4931074;28;20316;-75
2023/12/16 06:43:14;;;;;;;6.17;2.50;;;10.60;99.90;;;;;;4981139;28;20228;-74
2023/12/16 06:45:41;;;;;;;3.83;1.50;;;10.60;99.90;;;;;;4997341;28;20220;-75
2023/12/16 06:48:09;;;;;;;5.00;1.33;;;10.60;99.90;;;;;;4982149;28;20904;-76
2023/12/16 06:50:35;;;;;;;10.82;2.38;;;10.60;99.90;;;;;;4995533;28;20193;-75
2023/12/16 06:53:01;;;;;;;4.77;1.70;;;10.60;99.90;;;;;;5013472;28;20204;-75
2023/12/16 06:55:26;;;;;;;6.63;2.10;;;10.60;99.90;;;;;;4931257;29;20181;-76
2023/12/16 06:57:55;;;;;;;6.73;1.77;;;10.60;99.90;;;;;;5029906;28;20201;-75
2023/12/16 07:00:21;;;;;;;6.07;1.55;;;10.60;99.90;;;;;;4930738;28;20184;-76
2023/12/16 07:02:46;;;;;;;5.30;2.13;;;10.70;99.90;;;;;;4931481;28;20191;-74
2023/12/16 07:05:12;;;;;;;3.22;1.55;;;10.70;99.90;;;;;;4980341;28;20648;-75
2023/12/16 07:07:38;;;;;;;7.03;1.63;;;10.70;99.90;;;;;;4931209;29;20197;-75
2023/12/16 07:10:06;;;;;;;5.57;2.20;;;10.70;99.90;;;;;;4996391;28;20675;-73
2023/12/16 07:12:31;;;;;;;6.10;1.55;;;10.70;99.90;;;;;;5016140;28;20211;-74
2023/12/16 07:14:57;;;;;;;3.70;1.30;;;10.70;99.90;;;;;;4935224;28;20176;-74
2023/12/16 07:17:23;;;;;;;7.40;1.60;;;10.70;99.90;;;;;;4977382;28;20202;-76
2023/12/16 07:19:49;;;;;;;4.97;1.60;;;10.70;99.90;;;;;;4975932;28;20593;-75
2023/12/16 07:22:18;;;;;;;7.50;1.83;;;10.70;99.90;;;;;;4923536;28;20188;-74
2023/12/16 07:24:45;;;;;;;5.53;2.28;;;10.60;99.90;;;;;;4928515;28;20632;-76
2023/12/16 07:27:11;;;;;;;6.57;2.30;;;10.70;99.90;;;;;;5038988;28;20244;-75
2023/12/16 07:29:39;;;;;;;5.40;1.55;;;10.70;99.90;;;;;;4997646;28;20181;-75
2023/12/16 07:32:05;;;;;;;5.80;1.57;;;10.70;99.90;;;;;;4979610;28;20177;-75
2023/12/16 07:34:30;;;;;;;5.10;1.67;;;10.70;99.90;;;;;;4980288;28;20592;-74
2023/12/16 07:36:56;;;;;;;5.33;1.73;;;10.70;99.90;;;;;;4976651;28;20233;-74
2023/12/16 07:39:23;;;;;;;4.25;1.67;;;10.70;99.90;;;;;;4995830;28;20186;-74
2023/12/16 07:41:49;;;;;;;7.57;2.53;;;10.70;99.90;;;;;;4996992;28;20191;-75
2023/12/16 07:44:15;;;;;;;4.97;1.63;;;10.70;99.90;;;;;;4994267;28;20204;-75
2023/12/16 07:46:41;;;;;;;5.30;1.93;;;10.70;99.90;;;;;;4982336;28;20619;-75
2023/12/16 07:49:07;;;;;;;6.05;1.95;;;10.70;99.90;;;;;;4960413;28;20601;-75
2023/12/16 07:51:35;;;;;;;4.60;2.05;;;10.70;99.90;;;;;;4936449;28;20227;-75
2023/12/16 07:54:01;;;;;;;3.17;1.30;;;10.70;99.90;;;;;;4995961;28;20191;-74
2023/12/16 07:56:27;;;;;;;5.97;2.17;;;10.70;99.90;;;;;;4995695;28;20655;-74
2023/12/16 07:58:54;;;;;;;6.95;1.75;;;10.70;99.90;;;;;;4927854;28;20674;-79
2023/12/16 08:01:20;;;;;;;3.95;1.80;;;10.70;99.90;;;;;;4925063;28;20280;-77
2023/12/16 08:03:47;;;;;;;5.25;1.50;;;10.70;99.90;;;;;;5000771;28;20196;-77
2023/12/16 08:06:16;;;;;;;11.10;2.17;;;10.70;99.90;;;;;;4934920;28;20665;-77
2023/12/16 08:08:43;;;;;;;6.00;1.95;;;10.70;99.90;;;;;;4963908;28;20693;-77
2023/12/16 08:11:10;;;;;;;5.00;1.75;;;10.70;99.90;;;;;;4930024;28;20177;-78
2023/12/16 08:13:36;;;;;;;4.93;1.52;;;10.70;99.90;;;;;;4998674;28;20192;-78
2023/12/16 08:16:07;;;;;;;3.58;2.53;;;10.70;99.90;;;;;;5018618;28;20181;-78
2023/12/16 08:18:33;;;;;;;5.10;1.70;;;10.60;99.90;;;;;;4995964;28;20220;-79
2023/12/16 08:20:58;;;;;;;5.37;1.73;;;10.60;99.90;;;;;;4997435;28;20185;-78
2023/12/16 08:23:24;;;;;;;4.67;1.87;;;10.60;99.90;;;;;;4988068;28;20646;-79
2023/12/16 08:25:50;;;;;;;5.70;1.80;;;10.70;99.90;;;;;;5000495;28;20199;-77
2023/12/16 08:28:16;;;;;;;7.10;2.10;;;10.70;99.90;;;;;;4930432;28;20708;-78
2023/12/16 08:30:44;;;;;;;3.45;1.55;;;10.70;99.90;;;;;;4979198;28;20288;-76
2023/12/16 08:33:09;;;;;;;4.53;1.30;;;10.80;99.90;;;;;;4994571;28;20177;-76
2023/12/16 08:35:36;;;;;;;8.27;2.27;;;10.90;99.90;;;;;;4929302;29;20184;-75
2023/12/16 08:38:13;;;;;;;8.02;1.55;;;10.90;99.90;;;;;;4970277;28;20304;-77
2023/12/16 08:40:39;;;;;;;6.40;1.52;;;10.90;99.90;;;;;;4932947;28;20188;-77
2023/12/16 08:43:05;;;;;;;4.88;1.55;;;11.00;99.90;;;;;;5012648;28;20236;-76
2023/12/16 08:45:31;;;;;;;5.23;1.80;;;11.00;99.90;;;;;;5018489;28;20177;-76
2023/12/16 08:47:56;;;;;;;4.27;1.40;;;11.10;99.90;;;;;;4984425;28;20192;-76
2023/12/16 08:50:23;;;;;;;7.10;1.90;;;11.10;99.90;;;;;;4991598;28;20628;-76
2023/12/16 08:52:51;;;;;;;4.40;1.42;;;11.10;99.90;;;;;;4915736;28;20209;-77
2023/12/16 08:55:17;;;;;;;7.90;1.60;;;11.10;99.90;;;;;;4996482;28;20197;-76
2023/12/16 08:57:42;;;;;;;8.03;2.40;;;11.10;99.90;;;;;;4930890;28;20212;-78
2023/12/16 09:00:11;;;;;;;5.57;1.70;;;11.10;99.90;;;;;;5012930;28;20192;-76
2023/12/16 09:02:38;;;;;;;8.85;2.47;;;11.00;99.90;;;;;;4999055;28;20196;-76
2023/12/16 09:05:07;;;;;;;3.80;1.30;;;11.00;99.90;;;;;;4997440;28;20291;-76
2023/12/16 09:07:34;;;;;;;4.95;1.80;;;11.00;99.90;;;;;;4994319;28;20207;-76
2023/12/16 09:10:06;;;;;;;5.10;1.63;;;11.00;99.90;;;;;;5005909;28;20544;-78
2023/12/16 09:12:31;;;;;;;4.43;1.63;;;11.00;99.90;;;;;;4932163;28;20174;-77
2023/12/16 09:14:57;;;;;;;5.57;1.80;;;11.00;99.90;;;;;;4998640;28;20513;-78
2023/12/16 09:17:23;;;;;;;6.73;1.80;;;11.00;99.90;;;;;;5007907;28;20198;-78
2023/12/16 09:20:03;;;;;;;5.83;2.20;;;11.10;99.90;;;;;;4936832;29;20258;-78
2023/12/16 09:22:31;;;;;;;7.45;2.25;;;11.10;99.90;;;;;;4936350;28;20554;-80
2023/12/16 09:24:57;;;;;;;3.57;1.83;;;11.20;99.90;;;;;;4999598;28;20200;-78
2023/12/16 09:27:22;;;;;;;5.70;1.80;;;11.30;99.90;;;;;;4999751;28;20252;-79
2023/12/16 09:29:48;;;;;;;8.80;2.00;;;11.30;99.90;;;;;;5015988;28;20189;-79
2023/12/16 09:32:14;;;;;;;5.90;1.80;;;11.40;99.90;;;;;;4958564;28;20181;-79
2023/12/16 09:34:42;;;;;;;6.20;2.87;;;11.40;99.90;;;;;;5030762;28;20651;-78
2023/12/16 09:37:08;;;;;;;5.22;1.80;;;11.50;99.90;;;;;;5007531;28;20308;-80
2023/12/16 09:39:34;;;;;;;6.90;2.00;;;11.60;99.90;;;;;;4940127;28;20209;-78
2023/12/16 09:42:03;;;;;;;5.17;1.43;;;11.70;99.90;;;;;;5017575;28;20585;-78
2023/12/16 09:44:35;;;;;;;8.85;1.65;;;11.90;99.90;;;;;;5012279;28;20313;-80
2023/12/16 09:47:01;;;;;;;5.20;1.95;;;12.00;99.90;;;;;;4931791;28;20201;-79
2023/12/16 09:49:29;;;;;;;6.50;1.83;;;12.10;99.90;;;;;;4938497;28;20208;-79
2023/12/16 09:51:55;;;;;;;9.82;2.42;;;12.20;99.90;;;;;;4993743;28;20240;-79
2023/12/16 09:54:21;;;;;;;5.90;1.67;;;12.20;99.90;;;;;;4992285;28;20773;-79
2023/12/16 09:56:49;;;;;;;7.57;1.70;;;12.30;99.90;;;;;;4930921;28;20593;-79
2023/12/16 09:59:16;;;;;;;8.67;1.87;;;12.30;99.90;;;;;;4997030;28;20697;-79
2023/12/16 10:02:02;;;;;;;4.07;1.60;;;12.30;99.90;;;;;;4933895;28;20643;-79
2023/12/16 10:04:29;;;;;;;7.30;1.90;;;12.30;99.90;;;;;;4997787;28;20644;-79
2023/12/16 10:06:54;;;;;;;4.43;1.23;;;12.30;99.90;;;;;;5021432;28;20656;-79
2023/12/16 10:09:20;;;;;;;4.17;1.30;;;12.30;99.90;;;;;;4985538;28;20616;-78
2023/12/16 10:11:51;;;;;;;8.13;2.00;;;12.40;99.90;;;;;;5014520;28;20642;-79
2023/12/16 10:14:17;;;;;;;6.93;2.47;;;12.40;99.90;;;;;;5007162;28;20185;-79
2023/12/16 10:16:47;;;;;;;10.60;1.33;;;12.40;99.90;;;;;;5006957;28;20596;-79
2023/12/16 10:19:22;;;;;;;8.53;2.50;;;12.40;99.90;;;;;;5000481;28;20585;-75
2023/12/16 10:21:47;;;;;;;7.53;2.00;;;12.50;99.90;;;;;;4951501;28;20678;-74
2023/12/16 10:24:14;;;;;;;6.10;2.10;;;12.50;99.90;;;;;;4946679;28;21063;-74
2023/12/16 10:26:43;;;;;;;6.57;1.67;;;12.60;99.90;;;;;;4973214;28;20671;-74
2023/12/16 10:29:10;;;;;;;5.37;2.17;;;12.70;99.90;;;;;;5000227;28;20586;-74
2023/12/16 10:31:37;;;;;;;8.63;2.47;;;12.70;99.90;;;;;;4940306;28;20585;-74
2023/12/16 10:34:03;;;;;;;8.17;2.27;;;12.80;99.90;;;;;;4931635;28;20935;-73
2023/12/16 10:36:30;;;;;;;7.87;1.97;;;12.90;99.90;;;;;;4977817;28;20589;-74
2023/12/16 10:38:57;;;;;;;5.30;1.43;;;12.90;99.90;;;;;;4980901;28;20224;-74
2023/12/16 10:41:23;;;;;;;5.80;2.10;;;13.00;99.90;;;;;;4931147;28;20585;-75
2023/12/16 10:43:49;;;;;;;5.97;1.80;;;13.10;99.90;;;;;;4980512;28;20647;-74
2023/12/16 10:46:17;;;;;;;7.27;1.50;;;13.20;99.90;;;;;;5030337;28;20688;-74
2023/12/16 10:48:47;;;;;;;10.03;1.60;;;13.30;99.90;;;;;;4931237;28;20671;-74
2023/12/16 10:51:15;;;;;;;6.93;1.63;;;13.30;99.90;;;;;;4982400;28;21151;-74
2023/12/16 10:54:05;;;;;;;5.70;1.60;;;13.40;99.90;;;;;;5003569;28;20589;-74
2023/12/16 10:56:37;;;;;;;11.20;2.37;;;13.50;99.90;;;;;;4996825;28;20589;-74
2023/12/16 10:59:11;;;;;;;15.50;2.37;;;13.60;99.90;;;;;;4985570;28;20952;-75
2023/12/16 11:01:42;;;;;;;7.03;1.40;;;13.70;99.90;;;;;;5010461;28;21138;-75
2023/12/16 11:04:14;;;;;;;6.10;1.47;;;13.80;99.90;;;;;;5029839;28;20647;-75
2023/12/16 11:06:50;;;;;;;8.97;1.70;;;13.90;99.90;;;;;;5012997;28;20967;-75
2023/12/16 11:09:17;;;;;;;6.33;1.83;;;14.00;99.90;;;;;;4997059;28;20607;-75
2023/12/16 11:11:45;;;;;;;10.70;2.00;;;14.20;99.90;;;;;;4994707;28;20593;-75
2023/12/16 11:14:11;;;;;;;5.10;1.50;;;14.40;99.90;;;;;;4931397;28;20595;-75
2023/12/16 11:16:57;;;;;;;6.67;1.33;;;14.50;99.90;;;;;;4994292;28;20590;-75
2023/12/16 11:19:28;;;;;;;7.23;2.00;;;14.60;99.90;;;;;;4933862;28;20601;-75
2023/12/16 11:21:54;;;;;;;3.00;1.10;;;14.80;99.90;;;;;;4996845;28;20704;-76
2023/12/16 11:24:20;;;;;;;4.23;1.00;;;14.90;99.90;;;;;;5012715;28;20732;-75
2023/12/16 11:26:55;;;;;;;7.57;1.70;;;15.00;99.90;;;;;;5019331;28;20600;-75
2023/12/16 11:29:24;;;;;;;6.83;1.43;;;15.10;99.90;;;;;;5009878;28;20204;-74
2023/12/16 11:31:58;;;;;;;5.13;1.33;;;15.10;99.90;;;;;;4995147;28;20593;-75
2023/12/16 11:34:43;;;;;;;6.67;1.23;;;15.10;99.90;;;;;;4996430;28;20620;-74
2023/12/16 11:37:12;;;;;;;8.87;1.67;;;15.10;99.90;;;;;;4980054;28;20737;-76
2023/12/16 11:39:40;;;;;;;6.43;1.23;;;15.20;99.90;;;;;;5009899;28;20639;-75
2023/12/16 11:42:10;;;;;;;9.23;2.00;;;15.10;99.90;;;;;;4987722;23;20665;-77
2023/12/16 11:44:54;;;;;;;5.30;1.20;;;15.20;99.90;;;;;;5054641;28;20669;-77
2023/12/16 11:47:25;;;;;;;9.50;1.57;;;15.20;99.90;;;;;;5067199;28;20590;-77
2023/12/16 11:49:52;;;;;;;6.30;1.40;;;15.20;99.90;;;;;;5059636;28;20590;-78
2023/12/16 11:52:20;;;;;;;5.40;1.20;;;15.20;99.90;;;;;;5052814;28;20610;-78
2023/12/16 11:54:50;;;;;;;10.27;1.70;;;15.20;99.90;;;;;;5070831;28;20926;-78
2023/12/16 11:57:20;;;;;;;6.40;1.27;;;15.20;99.90;;;;;;5036371;28;20590;-78
2023/12/16 11:59:47;;;;;;;5.70;1.30;;;15.20;99.90;;;;;;5060619;28;20590;-78
2023/12/16 12:02:14;;;;;;;6.87;1.83;;;15.20;99.90;;;;;;5070888;28;20606;-78
2023/12/16 12:04:40;;;;;;;5.43;1.97;;;15.20;99.90;;;;;;5071403;28;20634;-77
2023/12/16 12:07:06;;;;;;;13.82;5.18;;;15.20;99.90;;;;;;5068615;28;20723;-77
2023/12/16 12:09:32;;;;;;;7.20;3.67;;;15.10;99.90;;;;;;5070561;28;20650;-77
2023/12/16 12:11:58;;;;;;;6.30;2.30;;;15.10;99.90;;;;;;5069579;28;20722;-78
2023/12/16 12:14:26;;;;;;;9.47;3.03;;;15.10;99.90;;;;;;5077817;28;20519;-77
2023/12/16 12:16:52;;;;;;;5.93;1.50;;;15.00;99.90;;;;;;5053941;28;20180;-78
2023/12/16 12:19:18;;;;;;;5.73;1.67;;;15.00;99.90;;;;;;5059823;28;20931;-78
2023/12/16 12:21:44;;;;;;;6.40;1.90;;;14.90;99.90;;;;;;5069804;28;20590;-77
2023/12/16 12:24:10;;;;;;;4.77;1.60;;;14.90;99.90;;;;;;5071120;28;20987;-77
2023/12/16 12:26:35;;;;;;;6.70;2.00;;;14.80;99.90;;;;;;5071534;28;20168;-77
2023/12/16 12:29:02;;;;;;;8.30;1.50;;;14.80;99.90;;;;;;5037106;28;20176;-77
2023/12/16 12:31:29;;;;;;;7.20;1.40;;;14.80;99.90;;;;;;5079673;28;20164;-78
2023/12/16 12:33:55;;;;;;;5.73;1.60;;;14.80;99.90;;;;;;5080157;28;20586;-77
2023/12/16 12:36:20;;;;;;;7.33;2.23;;;14.80;99.90;;;;;;5071323;28;20597;-77
2023/12/16 12:38:54;;;;;;;8.37;4.23;;;14.70;99.90;;;;;;5071651;28;20262;-76
2023/12/16 12:41:20;;;;;;;9.73;3.60;;;14.70;99.90;;;;;;5073565;28;20199;-78
2023/12/16 12:43:46;;;;;;;8.37;2.50;;;14.80;99.90;;;;;;5078804;28;20649;-77